Dades meteomassalio
Diari Summary for Gener 6, 2018 Units:  Both    English   Metric
« Previous Day
Next Day »
Diari Semanal Mensual Anual Personalitzat
  Maxima: Minima: Mijana:
Temperatura: TemperatureF °F /  -17.8 °C 31.0 °F /  -0.6 °C 41 °F /  5 °C
Rosada: DewpointF °F /  -17.8 °C 27.0 °F /  -2.8 °C 36.5 °F /  2.5 °C
Humitat: Humidity % 70 % 84 %
Velocitat del vent: WindSpeedMPH mph /  0 km/h - 3.2 mph /  5.1 km/h
Racha vent: WindSpeedGustMPH mph /  0 km/h - -
Vent:- - SW
Pressio: PressureIn in /  0 hPa 29.50 in /  998.9 hPa -
Pluja: 1.31 in /  33.27 mm    
Historical Graphs
 
 
Tabular Data for Gener 6, 2018
Time Temperature Dew Point Pressure Wind Wind Speed Wind Gust Humidity Rainfall Rate (Hourly) solar Conditions
TemperatureF °F /  -17.8 °C DewpointF °F /  -17.8 °C PressureIn in /  0 hPa Calm     Humidity % HourlyPrecipIn in /  0 mm SolarRadiationWatts/m^2 W/m2 Conditions
00:04 36.0 °F /  2.2 °C 30.7 °F /  -0.7 °C 29.77 in /  1008 hPa Calm     81 % 0.00 in /  0 mm 0.0 W/m2 CLR
00:09 36.0 °F /  2.2 °C 30.7 °F /  -0.7 °C 29.77 in /  1008 hPa Calm     81 % 0.00 in /  0 mm 0.0 W/m2 CLR
00:14 35.0 °F /  1.7 °C 29.8 °F /  -1.2 °C 29.77 in /  1008 hPa Calm     81 % 0.00 in /  0 mm 0.0 W/m2 CLR
00:19 36.0 °F /  2.2 °C 30.7 °F /  -0.7 °C 29.77 in /  1008 hPa Calm     81 % 0.00 in /  0 mm 0.0 W/m2 CLR
00:24 36.0 °F /  2.2 °C 30.7 °F /  -0.7 °C 29.77 in /  1008 hPa Calm     81 % 0.00 in /  0 mm 0.0 W/m2 CLR
00:25 36.0 °F /  2.2 °C 30.7 °F /  -0.7 °C 29.76 in /  1007.7 hPa Calm     81 % 0.00 in /  0 mm 0.0 W/m2 CLR
00:30 35.0 °F /  1.7 °C 29.8 °F /  -1.2 °C 29.76 in /  1007.7 hPa Calm     81 % 0.00 in /  0 mm 0.0 W/m2 CLR
00:35 36.0 °F /  2.2 °C 30.7 °F /  -0.7 °C 29.76 in /  1007.7 hPa Calm     81 % 0.00 in /  0 mm 0.0 W/m2 CLR
00:36 36.0 °F /  2.2 °C 30.7 °F /  -0.7 °C 29.76 in /  1007.7 hPa Calm     81 % 0.00 in /  0 mm 0.0 W/m2 CLR
00:41 35.0 °F /  1.7 °C 30.1 °F /  -1.1 °C 29.76 in /  1007.7 hPa Calm     82 % 0.00 in /  0 mm 0.0 W/m2 CLR
00:44 35.0 °F /  1.7 °C 30.1 °F /  -1.1 °C 29.76 in /  1007.7 hPa Calm     82 % 0.00 in /  0 mm 0.0 W/m2 CLR
00:46 35.0 °F /  1.7 °C 30.1 °F /  -1.1 °C 29.76 in /  1007.7 hPa Calm     82 % 0.00 in /  0 mm 0.0 W/m2 CLR
00:51 35.0 °F /  1.7 °C 30.1 °F /  -1.1 °C 29.76 in /  1007.7 hPa Calm     82 % 0.00 in /  0 mm 0.0 W/m2 CLR
00:53 35.0 °F /  1.7 °C 30.1 °F /  -1.1 °C 29.76 in /  1007.7 hPa Calm     82 % 0.00 in /  0 mm 0.0 W/m2 CLR
00:58 35.0 °F /  1.7 °C 30.1 °F /  -1.1 °C 29.76 in /  1007.7 hPa Calm     82 % 0.00 in /  0 mm 0.0 W/m2 CLR
00:59 35.0 °F /  1.7 °C 30.1 °F /  -1.1 °C 29.76 in /  1007.7 hPa Calm     82 % 0.00 in /  0 mm 0.0 W/m2 CLR
01:05 35.0 °F /  1.7 °C 30.4 °F /  -0.9 °C 29.75 in /  1007.3 hPa Calm     83 % 0.00 in /  0 mm 0.0 W/m2 CLR
01:11 35.0 °F /  1.7 °C 30.4 °F /  -0.9 °C 29.75 in /  1007.3 hPa Calm     83 % 0.00 in /  0 mm 0.0 W/m2 CLR
01:12 35.0 °F /  1.7 °C 30.4 °F /  -0.9 °C 29.74 in /  1007 hPa Calm     83 % 0.00 in /  0 mm 0.0 W/m2 CLR
01:17 35.0 °F /  1.7 °C 30.4 °F /  -0.9 °C 29.74 in /  1007 hPa Calm     83 % 0.00 in /  0 mm 0.0 W/m2 CLR
01:19 35.0 °F /  1.7 °C 30.4 °F /  -0.9 °C 29.74 in /  1007 hPa Calm     83 % 0.00 in /  0 mm 0.0 W/m2 CLR
01:25 34.0 °F /  1.1 °C 29.7 °F /  -1.3 °C 29.74 in /  1007 hPa Calm     84 % 0.00 in /  0 mm 0.0 W/m2 CLR
01:29 34.0 °F /  1.1 °C 29.7 °F /  -1.3 °C 29.74 in /  1007 hPa Calm     84 % 0.00 in /  0 mm 0.0 W/m2 CLR
01:33 34.0 °F /  1.1 °C 29.7 °F /  -1.3 °C 29.73 in /  1006.7 hPa Calm     84 % 0.00 in /  0 mm 0.0 W/m2 CLR
01:35 34.0 °F /  1.1 °C 29.7 °F /  -1.3 °C 29.73 in /  1006.7 hPa Calm     84 % 0.00 in /  0 mm 0.0 W/m2 CLR
01:40 34.0 °F /  1.1 °C 29.7 °F /  -1.3 °C 29.73 in /  1006.7 hPa Calm     84 % 0.00 in /  0 mm 0.0 W/m2 CLR
01:45 34.0 °F /  1.1 °C 30.0 °F /  -1.1 °C 29.73 in /  1006.7 hPa Calm     85 % 0.00 in /  0 mm 0.0 W/m2 CLR
01:48 34.0 °F /  1.1 °C 30.0 °F /  -1.1 °C 29.72 in /  1006.3 hPa Calm     85 % 0.00 in /  0 mm 0.0 W/m2 CLR
01:53 34.0 °F /  1.1 °C 30.0 °F /  -1.1 °C 29.72 in /  1006.3 hPa Calm     85 % 0.00 in /  0 mm 0.0 W/m2 CLR
02:03 34.0 °F /  1.1 °C 29.7 °F /  -1.3 °C 29.72 in /  1006.3 hPa Calm     84 % 0.00 in /  0 mm 0.0 W/m2 CLR
02:08 34.0 °F /  1.1 °C 29.7 °F /  -1.3 °C 29.72 in /  1006.3 hPa Calm     84 % 0.00 in /  0 mm 0.0 W/m2 CLR
02:12 34.0 °F /  1.1 °C 29.7 °F /  -1.3 °C 29.72 in /  1006.3 hPa Calm     84 % 0.00 in /  0 mm 0.0 W/m2 CLR
02:17 33.0 °F /  0.6 °C 28.7 °F /  -1.8 °C 29.72 in /  1006.3 hPa Calm     84 % 0.00 in /  0 mm 0.0 W/m2 CLR
02:22 33.0 °F /  0.6 °C 29.0 °F /  -1.7 °C 29.72 in /  1006.3 hPa Calm     85 % 0.00 in /  0 mm 0.0 W/m2 CLR
02:24 34.0 °F /  1.1 °C 30.0 °F /  -1.1 °C 29.72 in /  1006.3 hPa Calm     85 % 0.00 in /  0 mm 0.0 W/m2 CLR
02:29 33.0 °F /  0.6 °C 29.0 °F /  -1.7 °C 29.72 in /  1006.3 hPa Calm     85 % 0.00 in /  0 mm 0.0 W/m2 CLR
02:31 33.0 °F /  0.6 °C 29.0 °F /  -1.7 °C 29.72 in /  1006.3 hPa Calm     85 % 0.00 in /  0 mm 0.0 W/m2 CLR
02:34 33.0 °F /  0.6 °C 29.0 °F /  -1.7 °C 29.72 in /  1006.3 hPa Calm     85 % 0.00 in /  0 mm 0.0 W/m2 CLR
02:39 33.0 °F /  0.6 °C 29.3 °F /  -1.5 °C 29.72 in /  1006.3 hPa Calm     86 % 0.00 in /  0 mm 0.0 W/m2 CLR
02:44 33.0 °F /  0.6 °C 29.3 °F /  -1.5 °C 29.72 in /  1006.3 hPa Calm     86 % 0.00 in /  0 mm 0.0 W/m2 CLR
02:45 33.0 °F /  0.6 °C 29.3 °F /  -1.5 °C 29.72 in /  1006.3 hPa Calm     86 % 0.00 in /  0 mm 0.0 W/m2 CLR
02:50 33.0 °F /  0.6 °C 29.3 °F /  -1.5 °C 29.72 in /  1006.3 hPa Calm     86 % 0.00 in /  0 mm 0.0 W/m2 CLR
02:51 33.0 °F /  0.6 °C 29.3 °F /  -1.5 °C 29.72 in /  1006.3 hPa Calm     86 % 0.00 in /  0 mm 0.0 W/m2 CLR
02:56 33.0 °F /  0.6 °C 29.3 °F /  -1.5 °C 29.72 in /  1006.3 hPa Calm     86 % 0.00 in /  0 mm 0.0 W/m2 CLR
02:59 33.0 °F /  0.6 °C 29.3 °F /  -1.5 °C 29.72 in /  1006.3 hPa Calm     86 % 0.00 in /  0 mm 0.0 W/m2 CLR
03:04 33.0 °F /  0.6 °C 29.3 °F /  -1.5 °C 29.71 in /  1006 hPa Calm     86 % 0.00 in /  0 mm 0.0 W/m2 CLR
03:09 33.0 °F /  0.6 °C 29.6 °F /  -1.3 °C 29.71 in /  1006 hPa Calm     87 % 0.00 in /  0 mm 0.0 W/m2 CLR
03:14 33.0 °F /  0.6 °C 29.3 °F /  -1.5 °C 29.70 in /  1005.6 hPa Calm     86 % 0.00 in /  0 mm 0.0 W/m2 CLR
03:19 33.0 °F /  0.6 °C 29.3 °F /  -1.5 °C 29.70 in /  1005.6 hPa Calm     86 % 0.00 in /  0 mm 0.0 W/m2 CLR
03:20 33.0 °F /  0.6 °C 29.3 °F /  -1.5 °C 29.70 in /  1005.6 hPa Calm     86 % 0.00 in /  0 mm 0.0 W/m2 CLR
03:25 33.0 °F /  0.6 °C 29.6 °F /  -1.3 °C 29.70 in /  1005.6 hPa Calm     87 % 0.00 in /  0 mm 0.0 W/m2 CLR
03:26 33.0 °F /  0.6 °C 29.6 °F /  -1.3 °C 29.70 in /  1005.6 hPa Calm     87 % 0.00 in /  0 mm 0.0 W/m2 CLR
03:31 33.0 °F /  0.6 °C 29.8 °F /  -1.2 °C 29.70 in /  1005.6 hPa Calm     88 % 0.00 in /  0 mm 0.0 W/m2 CLR
03:36 33.0 °F /  0.6 °C 29.3 °F /  -1.5 °C 29.69 in /  1005.3 hPa Calm     86 % 0.00 in /  0 mm 0.0 W/m2 CLR
03:39 33.0 °F /  0.6 °C 29.3 °F /  -1.5 °C 29.69 in /  1005.3 hPa Calm     86 % 0.00 in /  0 mm 0.0 W/m2 CLR
03:44 33.0 °F /  0.6 °C 29.3 °F /  -1.5 °C 29.69 in /  1005.3 hPa Calm     86 % 0.00 in /  0 mm 0.0 W/m2 CLR
03:49 33.0 °F /  0.6 °C 29.8 °F /  -1.2 °C 29.69 in /  1005.3 hPa Calm     88 % 0.00 in /  0 mm 0.0 W/m2 CLR
03:54 33.0 °F /  0.6 °C 29.6 °F /  -1.3 °C 29.69 in /  1005.3 hPa Calm     87 % 0.00 in /  0 mm 0.0 W/m2 CLR
03:57 33.0 °F /  0.6 °C 29.3 °F /  -1.5 °C 29.68 in /  1005 hPa Calm     86 % 0.00 in /  0 mm 0.0 W/m2 CLR
04:03 33.0 °F /  0.6 °C 29.3 °F /  -1.5 °C 29.68 in /  1005 hPa Calm     86 % 0.00 in /  0 mm 0.0 W/m2 CLR
04:08 32.0 °F /  0 °C 28.6 °F /  -1.9 °C 29.68 in /  1005 hPa Calm     87 % 0.00 in /  0 mm 0.0 W/m2 CLR
04:13 32.0 °F /  0 °C 28.6 °F /  -1.9 °C 29.67 in /  1004.6 hPa Calm     87 % 0.00 in /  0 mm 0.0 W/m2 CLR
04:18 32.0 °F /  0 °C 28.6 °F /  -1.9 °C 29.67 in /  1004.6 hPa Calm     87 % 0.00 in /  0 mm 0.0 W/m2 CLR
04:23 32.0 °F /  0 °C 28.6 °F /  -1.9 °C 29.67 in /  1004.6 hPa Calm     87 % 0.00 in /  0 mm 0.0 W/m2 CLR
04:28 32.0 °F /  0 °C 28.0 °F /  -2.2 °C 29.66 in /  1004.3 hPa Calm     85 % 0.00 in /  0 mm 0.0 W/m2 CLR
04:33 31.0 °F /  -0.6 °C 27.0 °F /  -2.8 °C 29.66 in /  1004.3 hPa Calm     85 % 0.00 in /  0 mm 0.0 W/m2 CLR
04:38 32.0 °F /  0 °C 28.3 °F /  -2.1 °C 29.66 in /  1004.3 hPa Calm     86 % 0.00 in /  0 mm 0.0 W/m2 CLR
04:42 32.0 °F /  0 °C 28.6 °F /  -1.9 °C 29.66 in /  1004.3 hPa Calm     87 % 0.00 in /  0 mm 0.0 W/m2 CLR
04:43 32.0 °F /  0 °C 28.8 °F /  -1.8 °C 29.66 in /  1004.3 hPa Calm     88 % 0.00 in /  0 mm 0.0 W/m2 CLR
04:48 33.0 °F /  0.6 °C 29.3 °F /  -1.5 °C 29.66 in /  1004.3 hPa Calm     86 % 0.00 in /  0 mm 0.0 W/m2 CLR
04:53 33.0 °F /  0.6 °C 29.3 °F /  -1.5 °C 29.66 in /  1004.3 hPa Calm     86 % 0.00 in /  0 mm 0.0 W/m2 CLR
04:55 33.0 °F /  0.6 °C 29.3 °F /  -1.5 °C 29.66 in /  1004.3 hPa Calm     86 % 0.00 in /  0 mm 0.0 W/m2 CLR
05:00 33.0 °F /  0.6 °C 29.0 °F /  -1.7 °C 29.65 in /  1003.9 hPa Calm     85 % 0.00 in /  0 mm 0.0 W/m2 CLR
05:03 33.0 °F /  0.6 °C 29.3 °F /  -1.5 °C 29.65 in /  1003.9 hPa Calm     86 % 0.00 in /  0 mm 0.0 W/m2 CLR
05:08 32.0 °F /  0 °C 28.6 °F /  -1.9 °C 29.66 in /  1004.3 hPa Calm     87 % 0.00 in /  0 mm 0.0 W/m2 CLR
05:13 32.0 °F /  0 °C 28.3 °F /  -2.1 °C 29.66 in /  1004.3 hPa Calm     86 % 0.00 in /  0 mm 0.0 W/m2 CLR
05:19 32.0 °F /  0 °C 28.3 °F /  -2.1 °C 29.65 in /  1003.9 hPa Calm     86 % 0.00 in /  0 mm 0.0 W/m2 CLR
05:24 32.0 °F /  0 °C 28.3 °F /  -2.1 °C 29.65 in /  1003.9 hPa Calm     86 % 0.00 in /  0 mm 0.0 W/m2 CLR
05:30 32.0 °F /  0 °C 28.6 °F /  -1.9 °C 29.65 in /  1003.9 hPa Calm     87 % 0.00 in /  0 mm 0.0 W/m2 CLR
05:35 33.0 °F /  0.6 °C 29.6 °F /  -1.3 °C 29.65 in /  1003.9 hPa Calm     87 % 0.00 in /  0 mm 0.0 W/m2 CLR
05:36 33.0 °F /  0.6 °C 29.6 °F /  -1.3 °C 29.65 in /  1003.9 hPa Calm     87 % 0.00 in /  0 mm 0.0 W/m2 CLR
05:41 33.0 °F /  0.6 °C 29.8 °F /  -1.2 °C 29.65 in /  1003.9 hPa Calm     88 % 0.00 in /  0 mm 0.0 W/m2 CLR
05:42 33.0 °F /  0.6 °C 29.8 °F /  -1.2 °C 29.65 in /  1003.9 hPa Calm     88 % 0.00 in /  0 mm 0.0 W/m2 CLR
05:47 34.0 °F /  1.1 °C 30.8 °F /  -0.7 °C 29.65 in /  1003.9 hPa Calm     88 % 0.00 in /  0 mm 0.0 W/m2 CLR
05:48 34.0 °F /  1.1 °C 30.8 °F /  -0.7 °C 29.65 in /  1003.9 hPa Calm     88 % 0.00 in /  0 mm 0.0 W/m2 CLR
05:53 35.0 °F /  1.7 °C 31.8 °F /  -0.1 °C 29.65 in /  1003.9 hPa Calm     88 % 0.00 in /  0 mm 0.0 W/m2 CLR
05:55 35.0 °F /  1.7 °C 31.8 °F /  -0.1 °C 29.65 in /  1003.9 hPa Calm     88 % 0.00 in /  0 mm 0.0 W/m2 CLR
06:00 35.0 °F /  1.7 °C 31.5 °F /  -0.3 °C 29.64 in /  1003.6 hPa Calm     87 % 0.00 in /  0 mm 0.0 W/m2 CLR
06:01 35.0 °F /  1.7 °C 31.5 °F /  -0.3 °C 29.64 in /  1003.6 hPa Calm     87 % 0.00 in /  0 mm 0.0 W/m2 CLR
06:02 35.0 °F /  1.7 °C 31.5 °F /  -0.3 °C 29.64 in /  1003.6 hPa Calm     87 % 0.00 in /  0 mm 0.0 W/m2 CLR
06:07 35.0 °F /  1.7 °C 31.5 °F /  -0.3 °C 29.64 in /  1003.6 hPa Calm     87 % 0.00 in /  0 mm 0.0 W/m2 CLR
06:11 35.0 °F /  1.7 °C 31.2 °F /  -0.4 °C 29.64 in /  1003.6 hPa Calm     86 % 0.00 in /  0 mm 0.0 W/m2 CLR
06:15 35.0 °F /  1.7 °C 31.5 °F /  -0.3 °C 29.64 in /  1003.6 hPa Calm     87 % 0.00 in /  0 mm 0.0 W/m2 CLR
06:20 35.0 °F /  1.7 °C 31.8 °F /  -0.1 °C 29.64 in /  1003.6 hPa Calm     88 % 0.00 in /  0 mm 0.0 W/m2 CLR
06:21 35.0 °F /  1.7 °C 31.8 °F /  -0.1 °C 29.64 in /  1003.6 hPa Calm     88 % 0.00 in /  0 mm 0.0 W/m2 CLR
06:26 35.0 °F /  1.7 °C 31.5 °F /  -0.3 °C 29.64 in /  1003.6 hPa Calm     87 % 0.00 in /  0 mm 0.0 W/m2 CLR
06:31 35.0 °F /  1.7 °C 31.5 °F /  -0.3 °C 29.64 in /  1003.6 hPa Calm     87 % 0.00 in /  0 mm 0.0 W/m2 CLR
06:36 35.0 °F /  1.7 °C 31.2 °F /  -0.4 °C 29.63 in /  1003.3 hPa Calm     86 % 0.00 in /  0 mm 0.0 W/m2 CLR
06:41 35.0 °F /  1.7 °C 31.5 °F /  -0.3 °C 29.64 in /  1003.6 hPa Calm     87 % 0.00 in /  0 mm 0.0 W/m2 CLR
06:46 35.0 °F /  1.7 °C 31.2 °F /  -0.4 °C 29.64 in /  1003.6 hPa Calm     86 % 0.00 in /  0 mm 0.0 W/m2 CLR
06:51 35.0 °F /  1.7 °C 31.2 °F /  -0.4 °C 29.64 in /  1003.6 hPa Calm     86 % 0.00 in /  0 mm 0.0 W/m2 CLR
06:56 35.0 °F /  1.7 °C 30.9 °F /  -0.6 °C 29.63 in /  1003.3 hPa Calm     85 % 0.00 in /  0 mm 0.0 W/m2 CLR
06:59 35.0 °F /  1.7 °C 30.9 °F /  -0.6 °C 29.64 in /  1003.6 hPa Calm     85 % 0.00 in /  0 mm 0.0 W/m2 CLR
07:04 36.0 °F /  2.2 °C 31.9 °F /  -0.1 °C 29.63 in /  1003.3 hPa Calm     85 % 0.00 in /  0 mm 0.0 W/m2 CLR
07:09 35.0 °F /  1.7 °C 30.7 °F /  -0.7 °C 29.63 in /  1003.3 hPa Calm     84 % 0.00 in /  0 mm 0.0 W/m2 CLR
07:13 36.0 °F /  2.2 °C 31.6 °F /  -0.2 °C 29.64 in /  1003.6 hPa Calm     84 % 0.00 in /  0 mm 0.0 W/m2 CLR
07:16 36.0 °F /  2.2 °C 31.6 °F /  -0.2 °C 29.64 in /  1003.6 hPa Calm     84 % 0.00 in /  0 mm 0.0 W/m2 CLR
07:19 35.0 °F /  1.7 °C 30.9 °F /  -0.6 °C 29.63 in /  1003.3 hPa Calm     85 % 0.00 in /  0 mm 0.0 W/m2 CLR
07:25 35.0 °F /  1.7 °C 30.7 °F /  -0.7 °C 29.63 in /  1003.3 hPa Calm     84 % 0.00 in /  0 mm 0.0 W/m2 CLR
07:26 35.0 °F /  1.7 °C 30.7 °F /  -0.7 °C 29.63 in /  1003.3 hPa Calm     84 % 0.00 in /  0 mm 0.0 W/m2 CLR
07:31 35.0 °F /  1.7 °C 30.4 °F /  -0.9 °C 29.63 in /  1003.3 hPa Calm     83 % 0.00 in /  0 mm 0.0 W/m2 CLR
07:37 35.0 °F /  1.7 °C 30.1 °F /  -1.1 °C 29.63 in /  1003.3 hPa Calm     82 % 0.00 in /  0 mm 0.0 W/m2 CLR
07:41 36.0 °F /  2.2 °C 31.0 °F /  -0.6 °C 29.63 in /  1003.3 hPa Calm     82 % 0.00 in /  0 mm 0.0 W/m2 CLR
07:46 36.0 °F /  2.2 °C 31.6 °F /  -0.2 °C 29.63 in /  1003.3 hPa Calm     84 % 0.00 in /  0 mm 0.0 W/m2 CLR
07:47 36.0 °F /  2.2 °C 31.6 °F /  -0.2 °C 29.63 in /  1003.3 hPa Calm     84 % 0.00 in /  0 mm 0.0 W/m2 CLR
07:49 36.0 °F /  2.2 °C 31.6 °F /  -0.2 °C 29.63 in /  1003.3 hPa Calm     84 % 0.00 in /  0 mm 0.0 W/m2 CLR
07:54 36.0 °F /  2.2 °C 31.9 °F /  -0.1 °C 29.62 in /  1002.9 hPa Calm     85 % 0.00 in /  0 mm 0.0 W/m2 CLR
07:56 36.0 °F /  2.2 °C 31.6 °F /  -0.2 °C 29.62 in /  1002.9 hPa Calm     84 % 0.00 in /  0 mm 0.0 W/m2 CLR
08:01 36.0 °F /  2.2 °C 31.6 °F /  -0.2 °C 29.62 in /  1002.9 hPa Calm     84 % 0.00 in /  0 mm 0.0 W/m2 CLR
08:02 36.0 °F /  2.2 °C 31.6 °F /  -0.2 °C 29.62 in /  1002.9 hPa Calm     84 % 0.00 in /  0 mm 0.0 W/m2 CLR
08:04 36.0 °F /  2.2 °C 31.6 °F /  -0.2 °C 29.63 in /  1003.3 hPa Calm     84 % 0.00 in /  0 mm 0.0 W/m2 CLR
08:08 36.0 °F /  2.2 °C 31.6 °F /  -0.2 °C 29.62 in /  1002.9 hPa Calm     84 % 0.00 in /  0 mm 0.0 W/m2 CLR
08:13 36.0 °F /  2.2 °C 31.6 °F /  -0.2 °C 29.63 in /  1003.3 hPa Calm     84 % 0.00 in /  0 mm 0.0 W/m2 CLR
08:18 36.0 °F /  2.2 °C 31.6 °F /  -0.2 °C 29.63 in /  1003.3 hPa Calm     84 % 0.00 in /  0 mm 0.0 W/m2 OVC
08:21 37.0 °F /  2.8 °C 32.6 °F /  0.3 °C 29.63 in /  1003.3 hPa Calm     84 % 0.00 in /  0 mm 0.0 W/m2 OVC
08:26 37.0 °F /  2.8 °C 32.6 °F /  0.3 °C 29.63 in /  1003.3 hPa Calm     84 % 0.00 in /  0 mm 9.0 W/m2 BKN
08:32 37.0 °F /  2.8 °C 32.3 °F /  0.2 °C 29.64 in /  1003.6 hPa Calm     83 % 0.00 in /  0 mm 5.0 W/m2 OVC
08:34 37.0 °F /  2.8 °C 32.3 °F /  0.2 °C 29.64 in /  1003.6 hPa Calm     83 % 0.00 in /  0 mm 5.0 W/m2 OVC
08:39 37.0 °F /  2.8 °C 32.3 °F /  0.2 °C 29.64 in /  1003.6 hPa Calm     83 % 0.00 in /  0 mm 9.0 W/m2 BKN
08:44 37.0 °F /  2.8 °C 32.3 °F /  0.2 °C 29.64 in /  1003.6 hPa Calm     83 % 0.00 in /  0 mm 11.0 W/m2 BKN
08:45 37.0 °F /  2.8 °C 32.3 °F /  0.2 °C 29.64 in /  1003.6 hPa Calm     83 % 0.00 in /  0 mm 11.0 W/m2 BKN
08:50 38.0 °F /  3.3 °C 33.3 °F /  0.7 °C 29.64 in /  1003.6 hPa Calm     83 % 0.00 in /  0 mm 14.0 W/m2 BKN
08:51 38.0 °F /  3.3 °C 33.3 °F /  0.7 °C 29.64 in /  1003.6 hPa Calm     83 % 0.00 in /  0 mm 14.0 W/m2 BKN
08:56 38.0 °F /  3.3 °C 33.0 °F /  0.6 °C 29.64 in /  1003.6 hPa Calm     82 % 0.00 in /  0 mm 19.0 W/m2 BKN
09:01 38.0 °F /  3.3 °C 33.0 °F /  0.6 °C 29.64 in /  1003.6 hPa Calm     82 % 0.00 in /  0 mm 21.0 W/m2 BKN
09:06 38.0 °F /  3.3 °C 33.0 °F /  0.6 °C 29.65 in /  1003.9 hPa Calm     82 % 0.00 in /  0 mm 21.0 W/m2 BKN
09:11 38.0 °F /  3.3 °C 33.0 °F /  0.6 °C 29.65 in /  1003.9 hPa Calm     82 % 0.00 in /  0 mm 25.0 W/m2 BKN
09:13 38.0 °F /  3.3 °C 33.3 °F /  0.7 °C 29.65 in /  1003.9 hPa Calm     83 % 0.00 in /  0 mm 28.0 W/m2 BKN
09:18 38.0 °F /  3.3 °C 33.3 °F /  0.7 °C 29.65 in /  1003.9 hPa Calm     83 % 0.00 in /  0 mm 35.0 W/m2 BKN
09:20 38.0 °F /  3.3 °C 33.3 °F /  0.7 °C 29.65 in /  1003.9 hPa Calm     83 % 0.00 in /  0 mm 39.0 W/m2 BKN
09:25 39.0 °F /  3.9 °C 34.6 °F /  1.4 °C 29.65 in /  1003.9 hPa Calm     84 % 0.00 in /  0 mm 49.0 W/m2 BKN
09:28 39.0 °F /  3.9 °C 34.6 °F /  1.4 °C 29.65 in /  1003.9 hPa Calm     84 % 0.00 in /  0 mm 58.0 W/m2 BKN
09:33 39.0 °F /  3.9 °C 34.9 °F /  1.6 °C 29.66 in /  1004.3 hPa Calm     85 % 0.00 in /  0 mm 77.0 W/m2 SCT
09:38 39.0 °F /  3.9 °C 34.9 °F /  1.6 °C 29.66 in /  1004.3 hPa Calm     85 % 0.00 in /  0 mm 91.0 W/m2 FEW
09:40 40.0 °F /  4.4 °C 35.9 °F /  2.2 °C 29.66 in /  1004.3 hPa Calm     85 % 0.00 in /  0 mm 100.0 W/m2 FEW
09:45 40.0 °F /  4.4 °C 35.9 °F /  2.2 °C 29.66 in /  1004.3 hPa Calm     85 % 0.00 in /  0 mm 91.0 W/m2 CLR
09:50 41.0 °F /  5 °C 36.8 °F /  2.7 °C 29.66 in /  1004.3 hPa Calm     85 % 0.00 in /  0 mm 67.0 W/m2 CLR
09:55 42.0 °F /  5.6 °C 37.8 °F /  3.2 °C 29.66 in /  1004.3 hPa Calm     85 % 0.00 in /  0 mm 56.0 W/m2 FEW
09:59 42.0 °F /  5.6 °C 37.8 °F /  3.2 °C 29.66 in /  1004.3 hPa Calm     85 % 0.00 in /  0 mm 60.0 W/m2 SCT
10:01 42.0 °F /  5.6 °C 37.8 °F /  3.2 °C 29.66 in /  1004.3 hPa Calm     85 % 0.00 in /  0 mm 67.0 W/m2 SCT
10:06 42.0 °F /  5.6 °C 37.8 °F /  3.2 °C 29.66 in /  1004.3 hPa Calm     85 % 0.00 in /  0 mm 76.0 W/m2 FEW
10:11 42.0 °F /  5.6 °C 37.8 °F /  3.2 °C 29.66 in /  1004.3 hPa Calm     85 % 0.00 in /  0 mm 70.0 W/m2 FEW
10:16 42.0 °F /  5.6 °C 37.8 °F /  3.2 °C 29.66 in /  1004.3 hPa Calm     85 % 0.00 in /  0 mm 84.0 W/m2 FEW
10:20 42.0 °F /  5.6 °C 37.8 °F /  3.2 °C 29.66 in /  1004.3 hPa Calm     85 % 0.00 in /  0 mm 88.0 W/m2 FEW
10:25 42.0 °F /  5.6 °C 37.8 °F /  3.2 °C 29.66 in /  1004.3 hPa Calm     85 % 0.00 in /  0 mm 93.0 W/m2 CLR
10:30 42.0 °F /  5.6 °C 38.1 °F /  3.4 °C 29.66 in /  1004.3 hPa Calm     86 % 0.00 in /  0 mm 183.0 W/m2 CLR
10:32 42.0 °F /  5.6 °C 38.1 °F /  3.4 °C 29.67 in /  1004.6 hPa Calm     86 % 0.00 in /  0 mm 290.0 W/m2 CLR
10:37 43.0 °F /  6.1 °C 38.8 °F /  3.8 °C 29.67 in /  1004.6 hPa Calm     85 % 0.00 in /  0 mm 223.0 W/m2 CLR
10:39 43.0 °F /  6.1 °C 38.8 °F /  3.8 °C 29.67 in /  1004.6 hPa NNW 8.0 mph /  12.9 km/h 8.0 mph /  12.9 km/h 85 % 0.00 in /  0 mm 350.0 W/m2 CLR
10:44 44.0 °F /  6.7 °C 39.5 °F /  4.2 °C 29.67 in /  1004.6 hPa NNW 5.8 mph /  9.3 km/h 5.8 mph /  9.3 km/h 84 % 0.00 in /  0 mm 366.0 W/m2 CLR
10:49 44.0 °F /  6.7 °C 39.2 °F /  4 °C 29.67 in /  1004.6 hPa North 8.1 mph /  13 km/h 8.1 mph /  13 km/h 83 % 0.00 in /  0 mm 392.0 W/m2 CLR
10:54 45.0 °F /  7.2 °C 39.8 °F /  4.3 °C 29.67 in /  1004.6 hPa North 5.8 mph /  9.3 km/h 5.8 mph /  9.3 km/h 82 % 0.00 in /  0 mm 429.0 W/m2 CLR
10:58 46.0 °F /  7.8 °C 40.5 °F /  4.7 °C 29.67 in /  1004.6 hPa NNW 8.1 mph /  13 km/h 8.1 mph /  13 km/h 81 % 0.00 in /  0 mm 406.0 W/m2 CLR
11:03 46.0 °F /  7.8 °C 40.2 °F /  4.6 °C 29.67 in /  1004.6 hPa Calm     80 % 0.00 in /  0 mm 424.0 W/m2 CLR
11:08 46.0 °F /  7.8 °C 40.2 °F /  4.6 °C 29.67 in /  1004.6 hPa Calm     80 % 0.00 in /  0 mm 283.0 W/m2 CLR
11:13 47.0 °F /  8.3 °C 40.8 °F /  4.9 °C 29.68 in /  1005 hPa Calm     79 % 0.00 in /  0 mm 388.0 W/m2 CLR
11:19 47.0 °F /  8.3 °C 40.5 °F /  4.7 °C 29.68 in /  1005 hPa Calm     78 % 0.00 in /  0 mm 403.0 W/m2 CLR
11:20 47.0 °F /  8.3 °C 40.5 °F /  4.7 °C 29.68 in /  1005 hPa North 2.0 mph /  3.2 km/h 2.0 mph /  3.2 km/h 78 % 0.00 in /  0 mm 397.0 W/m2 CLR
11:25 48.0 °F /  8.9 °C 41.1 °F /  5.1 °C 29.67 in /  1004.6 hPa NNW 2.3 mph /  3.7 km/h 2.3 mph /  3.7 km/h 77 % 0.00 in /  0 mm 262.0 W/m2 CLR
11:26 48.0 °F /  8.9 °C 41.1 °F /  5.1 °C 29.68 in /  1005 hPa NNW 3.5 mph /  5.6 km/h 3.5 mph /  5.6 km/h 77 % 0.00 in /  0 mm 229.0 W/m2 CLR
11:31 48.0 °F /  8.9 °C 41.1 °F /  5.1 °C 29.68 in /  1005 hPa NW 8.1 mph /  13 km/h 8.1 mph /  13 km/h 77 % 0.00 in /  0 mm 213.0 W/m2 CLR
11:36 47.0 °F /  8.3 °C 40.2 °F /  4.6 °C 29.68 in /  1005 hPa NW 8.1 mph /  13 km/h 8.1 mph /  13 km/h 77 % 0.00 in /  0 mm 274.0 W/m2 CLR
11:44 47.0 °F /  8.3 °C 40.5 °F /  4.7 °C 29.68 in /  1005 hPa NNW 9.2 mph /  14.8 km/h 9.2 mph /  14.8 km/h 78 % 0.00 in /  0 mm 373.0 W/m2 CLR
11:48 47.0 °F /  8.3 °C 40.2 °F /  4.6 °C 29.68 in /  1005 hPa NNW 11.5 mph /  18.5 km/h 11.5 mph /  18.5 km/h 77 % 0.00 in /  0 mm 373.0 W/m2 CLR
11:53 47.0 °F /  8.3 °C 40.2 °F /  4.6 °C 29.68 in /  1005 hPa NNW 8.1 mph /  13 km/h 8.1 mph /  13 km/h 77 % 0.00 in /  0 mm 362.0 W/m2 CLR
11:58 47.0 °F /  8.3 °C 40.2 °F /  4.6 °C 29.67 in /  1004.6 hPa NW 3.5 mph /  5.6 km/h   77 % 0.00 in /  0 mm 367.0 W/m2 CLR
12:06 47.0 °F /  8.3 °C 39.8 °F /  4.3 °C 29.66 in /  1004.3 hPa Calm     76 % 0.00 in /  0 mm 475.0 W/m2 CLR
12:07 47.0 °F /  8.3 °C 39.8 °F /  4.3 °C 29.66 in /  1004.3 hPa Calm     76 % 0.00 in /  0 mm 475.0 W/m2 CLR
12:12 48.0 °F /  8.9 °C 40.8 °F /  4.9 °C 29.66 in /  1004.3 hPa Calm     76 % 0.00 in /  0 mm 397.0 W/m2 CLR
12:15 48.0 °F /  8.9 °C 40.5 °F /  4.7 °C 29.65 in /  1003.9 hPa Calm     75 % 0.00 in /  0 mm 350.0 W/m2 CLR
12:20 48.0 °F /  8.9 °C 40.5 °F /  4.7 °C 29.65 in /  1003.9 hPa Calm     75 % 0.00 in /  0 mm 381.0 W/m2 CLR
12:25 48.0 °F /  8.9 °C 40.1 °F /  4.5 °C 29.65 in /  1003.9 hPa Calm     74 % 0.00 in /  0 mm 343.0 W/m2 CLR
12:30 48.0 °F /  8.9 °C 40.1 °F /  4.5 °C 29.65 in /  1003.9 hPa Calm     74 % 0.00 in /  0 mm 357.0 W/m2 CLR
12:35 48.0 °F /  8.9 °C 40.1 °F /  4.5 °C 29.65 in /  1003.9 hPa Calm     74 % 0.00 in /  0 mm 341.0 W/m2 CLR
12:40 49.0 °F /  9.4 °C 40.7 °F /  4.8 °C 29.65 in /  1003.9 hPa Calm     73 % 0.00 in /  0 mm 339.0 W/m2 CLR
12:41 49.0 °F /  9.4 °C 40.7 °F /  4.8 °C 29.65 in /  1003.9 hPa Calm     73 % 0.00 in /  0 mm 315.0 W/m2 CLR
12:46 49.0 °F /  9.4 °C 40.7 °F /  4.8 °C 29.64 in /  1003.6 hPa Calm     73 % 0.00 in /  0 mm 287.0 W/m2 CLR
12:49 49.0 °F /  9.4 °C 40.7 °F /  4.8 °C 29.64 in /  1003.6 hPa Calm     73 % 0.00 in /  0 mm 241.0 W/m2 CLR
12:54 49.0 °F /  9.4 °C 40.4 °F /  4.7 °C 29.64 in /  1003.6 hPa Calm     72 % 0.00 in /  0 mm 127.0 W/m2 CLR
12:57 49.0 °F /  9.4 °C 40.7 °F /  4.8 °C 29.64 in /  1003.6 hPa Calm     73 % 0.00 in /  0 mm 137.0 W/m2 CLR
13:02 49.0 °F /  9.4 °C 40.4 °F /  4.7 °C 29.64 in /  1003.6 hPa Calm     72 % 0.00 in /  0 mm 135.0 W/m2 CLR
13:05 49.0 °F /  9.4 °C 40.4 °F /  4.7 °C 29.64 in /  1003.6 hPa Calm     72 % 0.00 in /  0 mm 132.0 W/m2 CLR
13:10 49.0 °F /  9.4 °C 40.7 °F /  4.8 °C 29.64 in /  1003.6 hPa Calm     73 % 0.00 in /  0 mm 172.0 W/m2 CLR
13:14 49.0 °F /  9.4 °C 40.7 °F /  4.8 °C 29.63 in /  1003.3 hPa Calm     73 % 0.00 in /  0 mm 241.0 W/m2 CLR
13:19 49.0 °F /  9.4 °C 41.1 °F /  5.1 °C 29.63 in /  1003.3 hPa Calm     74 % 0.00 in /  0 mm 360.0 W/m2 CLR
13:21 49.0 °F /  9.4 °C 41.1 °F /  5.1 °C 29.63 in /  1003.3 hPa Calm     74 % 0.00 in /  0 mm 411.0 W/m2 CLR
13:26 50.0 °F /  10 °C 41.7 °F /  5.4 °C 29.63 in /  1003.3 hPa Calm     73 % 0.00 in /  0 mm 427.0 W/m2 CLR
13:27 50.0 °F /  10 °C 41.7 °F /  5.4 °C 29.63 in /  1003.3 hPa Calm     73 % 0.00 in /  0 mm 427.0 W/m2 CLR
13:32 50.0 °F /  10 °C 41.3 °F /  5.2 °C 29.62 in /  1002.9 hPa Calm     72 % 0.00 in /  0 mm 418.0 W/m2 CLR
13:37 50.0 °F /  10 °C 40.6 °F /  4.8 °C 29.62 in /  1002.9 hPa Calm     70 % 0.00 in /  0 mm 287.0 W/m2 CLR
13:42 50.0 °F /  10 °C 41.0 °F /  5 °C 29.62 in /  1002.9 hPa Calm     71 % 0.00 in /  0 mm 346.0 W/m2 CLR
13:47 50.0 °F /  10 °C 41.0 °F /  5 °C 29.61 in /  1002.6 hPa NE 1.2 mph /  1.9 km/h 1.2 mph /  1.9 km/h 71 % 0.00 in /  0 mm 417.0 W/m2 CLR
13:52 50.0 °F /  10 °C 40.6 °F /  4.8 °C 29.60 in /  1002.3 hPa East 9.0 mph /  14.5 km/h 9.0 mph /  14.5 km/h 70 % 0.00 in /  0 mm 417.0 W/m2 CLR
13:57 50.0 °F /  10 °C 40.6 °F /  4.8 °C 29.59 in /  1001.9 hPa East 11.5 mph /  18.5 km/h 11.5 mph /  18.5 km/h 70 % 0.00 in /  0 mm 446.0 W/m2 CLR
14:02 50.0 °F /  10 °C 40.6 °F /  4.8 °C 29.59 in /  1001.9 hPa East 11.5 mph /  18.5 km/h 11.5 mph /  18.5 km/h 70 % 0.00 in /  0 mm 406.0 W/m2 CLR
14:04 50.0 °F /  10 °C 40.6 °F /  4.8 °C 29.59 in /  1001.9 hPa ENE 10.4 mph /  16.7 km/h 10.4 mph /  16.7 km/h 70 % 0.00 in /  0 mm 392.0 W/m2 CLR
14:06 50.0 °F /  10 °C 41.0 °F /  5 °C 29.59 in /  1001.9 hPa ENE 11.5 mph /  18.5 km/h 11.5 mph /  18.5 km/h 71 % 0.00 in /  0 mm 394.0 W/m2 CLR
14:11 50.0 °F /  10 °C 41.0 °F /  5 °C 29.59 in /  1001.9 hPa ENE 11.5 mph /  18.5 km/h 11.5 mph /  18.5 km/h 71 % 0.00 in /  0 mm 406.0 W/m2 CLR
14:16 50.0 °F /  10 °C 40.6 °F /  4.8 °C 29.59 in /  1001.9 hPa ENE 11.5 mph /  18.5 km/h 11.5 mph /  18.5 km/h 70 % 0.00 in /  0 mm 371.0 W/m2 CLR
14:18 50.0 °F /  10 °C 40.6 °F /  4.8 °C 29.59 in /  1001.9 hPa ENE 10.4 mph /  16.7 km/h 10.4 mph /  16.7 km/h 70 % 0.00 in /  0 mm 392.0 W/m2 CLR
14:23 50.0 °F /  10 °C 41.0 °F /  5 °C 29.59 in /  1001.9 hPa ENE 8.0 mph /  12.9 km/h 8.0 mph /  12.9 km/h 71 % 0.00 in /  0 mm 162.0 W/m2 CLR
14:27 50.0 °F /  10 °C 41.0 °F /  5 °C 29.59 in /  1001.9 hPa ENE 8.1 mph /  13 km/h 8.1 mph /  13 km/h 71 % 0.00 in /  0 mm 190.0 W/m2 CLR
14:32 50.0 °F /  10 °C 41.3 °F /  5.2 °C 29.59 in /  1001.9 hPa East 6.0 mph /  9.7 km/h 6.0 mph /  9.7 km/h 72 % 0.00 in /  0 mm 162.0 W/m2 CLR
14:33 50.0 °F /  10 °C 41.3 °F /  5.2 °C 29.59 in /  1001.9 hPa ENE 8.1 mph /  13 km/h 8.1 mph /  13 km/h 72 % 0.00 in /  0 mm 167.0 W/m2 CLR
14:38 50.0 °F /  10 °C 41.3 °F /  5.2 °C 29.59 in /  1001.9 hPa ENE 8.1 mph /  13 km/h 8.1 mph /  13 km/h 72 % 0.00 in /  0 mm 146.0 W/m2 CLR
14:43 51.0 °F /  10.6 °C 42.3 °F /  5.7 °C 29.58 in /  1001.6 hPa Calm     72 % 0.00 in /  0 mm 359.0 W/m2 CLR
14:48 51.0 °F /  10.6 °C 42.3 °F /  5.7 °C 29.58 in /  1001.6 hPa Calm     72 % 0.00 in /  0 mm 163.0 W/m2 CLR
14:53 51.0 °F /  10.6 °C 41.9 °F /  5.5 °C 29.58 in /  1001.6 hPa ENE 5.8 mph /  9.3 km/h 5.8 mph /  9.3 km/h 71 % 0.00 in /  0 mm 174.0 W/m2 CLR
14:58 51.0 °F /  10.6 °C 42.3 °F /  5.7 °C 29.58 in /  1001.6 hPa ENE 10.4 mph /  16.7 km/h 10.4 mph /  16.7 km/h 72 % 0.00 in /  0 mm 176.0 W/m2 CLR
15:03 51.0 °F /  10.6 °C 42.3 °F /  5.7 °C 29.57 in /  1001.2 hPa East 9.2 mph /  14.8 km/h 9.2 mph /  14.8 km/h 72 % 0.00 in /  0 mm 190.0 W/m2 CLR
15:06 51.0 °F /  10.6 °C 42.3 °F /  5.7 °C 29.57 in /  1001.2 hPa ENE 10.4 mph /  16.7 km/h 10.4 mph /  16.7 km/h 72 % 0.00 in /  0 mm 192.0 W/m2 CLR
15:11 51.0 °F /  10.6 °C 42.3 °F /  5.7 °C 29.56 in /  1000.9 hPa East 9.2 mph /  14.8 km/h 9.2 mph /  14.8 km/h 72 % 0.00 in /  0 mm 209.0 W/m2 CLR
15:16 52.0 °F /  11.1 °C 43.3 °F /  6.3 °C 29.56 in /  1000.9 hPa East 1.2 mph /  1.9 km/h 1.2 mph /  1.9 km/h 72 % 0.00 in /  0 mm 188.0 W/m2 CLR
15:21 52.0 °F /  11.1 °C 43.3 °F /  6.3 °C 29.56 in /  1000.9 hPa East 2.3 mph /  3.7 km/h 2.3 mph /  3.7 km/h 72 % 0.00 in /  0 mm 181.0 W/m2 CLR
15:26 52.0 °F /  11.1 °C 43.3 °F /  6.3 °C 29.56 in /  1000.9 hPa East 2.3 mph /  3.7 km/h 2.3 mph /  3.7 km/h 72 % 0.00 in /  0 mm 171.0 W/m2 CLR
15:31 52.0 °F /  11.1 °C 43.3 °F /  6.3 °C 29.56 in /  1000.9 hPa ENE 9.2 mph /  14.8 km/h 9.2 mph /  14.8 km/h 72 % 0.00 in /  0 mm 144.0 W/m2 CLR
15:36 52.0 °F /  11.1 °C 43.3 °F /  6.3 °C 29.56 in /  1000.9 hPa NE 9.2 mph /  14.8 km/h 9.2 mph /  14.8 km/h 72 % 0.00 in /  0 mm 118.0 W/m2 CLR
15:42 52.0 °F /  11.1 °C 43.3 °F /  6.3 °C 29.56 in /  1000.9 hPa ENE 6.9 mph /  11.1 km/h   72 % 0.00 in /  0 mm 121.0 W/m2 CLR
15:45 52.0 °F /  11.1 °C 43.3 °F /  6.3 °C 29.55 in /  1000.6 hPa ENE 9.0 mph /  14.5 km/h 9.0 mph /  14.5 km/h 72 % 0.00 in /  0 mm 149.0 W/m2 CLR
15:48 52.0 °F /  11.1 °C 43.3 °F /  6.3 °C 29.55 in /  1000.6 hPa ENE 3.5 mph /  5.6 km/h   72 % 0.00 in /  0 mm 153.0 W/m2 CLR
15:53 52.0 °F /  11.1 °C 43.3 °F /  6.3 °C 29.55 in /  1000.6 hPa NE 9.2 mph /  14.8 km/h 9.2 mph /  14.8 km/h 72 % 0.00 in /  0 mm 125.0 W/m2 CLR
15:58 51.0 °F /  10.6 °C 42.6 °F /  5.9 °C 29.55 in /  1000.6 hPa Calm     73 % 0.00 in /  0 mm 105.0 W/m2 CLR
15:59 51.0 °F /  10.6 °C 42.6 °F /  5.9 °C 29.55 in /  1000.6 hPa Calm     73 % 0.00 in /  0 mm 105.0 W/m2 CLR
16:03 51.0 °F /  10.6 °C 42.6 °F /  5.9 °C 29.55 in /  1000.6 hPa Calm     73 % 0.00 in /  0 mm 70.0 W/m2 CLR
16:08 51.0 °F /  10.6 °C 42.6 °F /  5.9 °C 29.55 in /  1000.6 hPa ENE 9.2 mph /  14.8 km/h 9.2 mph /  14.8 km/h 73 % 0.00 in /  0 mm 58.0 W/m2 FEW
16:10 51.0 °F /  10.6 °C 42.6 °F /  5.9 °C 29.55 in /  1000.6 hPa ENE 3.5 mph /  5.6 km/h   73 % 0.00 in /  0 mm 46.0 W/m2 FEW
16:14 51.0 °F /  10.6 °C 43.4 °F /  6.3 °C 29.55 in /  1000.6 hPa Calm     75 % 0.00 in /  0 mm 33.0 W/m2 SCT
16:19 50.0 °F /  10 °C 43.1 °F /  6.2 °C 29.54 in /  1000.2 hPa ENE 6.0 mph /  9.7 km/h 6.0 mph /  9.7 km/h 77 % 0.00 in /  0 mm 35.0 W/m2 BKN
16:24 50.0 °F /  10 °C 44.1 °F /  6.7 °C 29.54 in /  1000.2 hPa NE 4.6 mph /  7.4 km/h 4.6 mph /  7.4 km/h 80 % 0.00 in /  0 mm 19.0 W/m2 BKN
16:27 50.0 °F /  10 °C 44.1 °F /  6.7 °C 29.54 in /  1000.2 hPa Calm     80 % 0.00 in /  0 mm 14.0 W/m2 BKN
16:28 50.0 °F /  10 °C 44.4 °F /  6.9 °C 29.54 in /  1000.2 hPa Calm     81 % 0.00 in /  0 mm 14.0 W/m2 BKN
16:33 49.0 °F /  9.4 °C 44.1 °F /  6.7 °C 29.53 in /  999.9 hPa Calm     83 % 0.01 in /  0.25 mm 18.0 W/m2 RA
16:36 49.0 °F /  9.4 °C 44.4 °F /  6.9 °C 29.53 in /  999.9 hPa Calm     84 % 0.01 in /  0.25 mm 11.0 W/m2 BKN
16:42 49.0 °F /  9.4 °C 44.7 °F /  7.1 °C 29.53 in /  999.9 hPa Calm     85 % 0.05 in /  1.27 mm 7.0 W/m2 RA
16:45 48.0 °F /  8.9 °C 44.0 °F /  6.7 °C 29.53 in /  999.9 hPa Calm     86 % 0.06 in /  1.52 mm 7.0 W/m2 RA
16:51 48.0 °F /  8.9 °C 44.6 °F /  7 °C 29.53 in /  999.9 hPa NNW 8.1 mph /  13 km/h 8.1 mph /  13 km/h 88 % 0.07 in /  1.78 mm 5.0 W/m2 RA
16:55 48.0 °F /  8.9 °C 44.6 °F /  7 °C 29.53 in /  999.9 hPa WNW 6.9 mph /  11.1 km/h 6.9 mph /  11.1 km/h 88 % 0.08 in /  2.03 mm 0.0 W/m2 RA
17:00 49.0 °F /  9.4 °C 45.9 °F /  7.7 °C 29.52 in /  999.5 hPa Calm     89 % 0.09 in /  2.29 mm 5.0 W/m2 RA
17:05 49.0 °F /  9.4 °C 45.9 °F /  7.7 °C 29.52 in /  999.5 hPa North 9.2 mph /  14.8 km/h 9.2 mph /  14.8 km/h 89 % 0.09 in /  2.29 mm 0.0 W/m2
17:10 49.0 °F /  9.4 °C 45.9 °F /  7.7 °C 29.53 in /  999.9 hPa North 8.1 mph /  13 km/h 8.1 mph /  13 km/h 89 % 0.09 in /  2.29 mm 0.0 W/m2 CLR
17:15 49.0 °F /  9.4 °C 45.9 °F /  7.7 °C 29.52 in /  999.5 hPa North 9.0 mph /  14.5 km/h 9.0 mph /  14.5 km/h 89 % 0.09 in /  2.29 mm 0.0 W/m2 OVC
17:20 48.0 °F /  8.9 °C 44.6 °F /  7 °C 29.52 in /  999.5 hPa NNW 6.9 mph /  11.1 km/h 6.9 mph /  11.1 km/h 88 % 0.09 in /  2.29 mm 0.0 W/m2 OVC
17:23 48.0 °F /  8.9 °C 44.9 °F /  7.2 °C 29.52 in /  999.5 hPa NNW 9.2 mph /  14.8 km/h 9.2 mph /  14.8 km/h 89 % 0.09 in /  2.29 mm 0.0 W/m2 RA
17:28 47.0 °F /  8.3 °C 43.9 °F /  6.6 °C 29.53 in /  999.9 hPa North 11.5 mph /  18.5 km/h 11.5 mph /  18.5 km/h 89 % 0.10 in /  2.54 mm 0.0 W/m2 RA
17:30 47.0 °F /  8.3 °C 43.9 °F /  6.6 °C 29.53 in /  999.9 hPa North 10.4 mph /  16.7 km/h 10.4 mph /  16.7 km/h 89 % 0.11 in /  2.79 mm 0.0 W/m2 RA
17:35 47.0 °F /  8.3 °C 43.9 °F /  6.6 °C 29.54 in /  1000.2 hPa Calm     89 % 0.13 in /  3.3 mm 0.0 W/m2 RA
17:40 47.0 °F /  8.3 °C 44.2 °F /  6.8 °C 29.53 in /  999.9 hPa Calm     90 % 0.14 in /  3.56 mm 0.0 W/m2 RA
17:45 46.0 °F /  7.8 °C 43.2 °F /  6.2 °C 29.54 in /  1000.2 hPa ENE 3.5 mph /  5.6 km/h   90 % 0.13 in /  3.3 mm 0.0 W/m2 RA
17:50 46.0 °F /  7.8 °C 43.2 °F /  6.2 °C 29.53 in /  999.9 hPa North 8.0 mph /  12.9 km/h 8.0 mph /  12.9 km/h 90 % 0.13 in /  3.3 mm 0.0 W/m2 RA
17:55 46.0 °F /  7.8 °C 43.2 °F /  6.2 °C 29.51 in /  999.2 hPa North 11.5 mph /  18.5 km/h 11.5 mph /  18.5 km/h 90 % 0.16 in /  4.06 mm 0.0 W/m2 RA
17:58 46.0 °F /  7.8 °C 43.2 °F /  6.2 °C 29.52 in /  999.5 hPa NW 16.1 mph /  25.9 km/h 16.1 mph /  25.9 km/h 90 % 0.16 in /  4.06 mm 0.0 W/m2 RA
18:03 46.0 °F /  7.8 °C 43.5 °F /  6.4 °C 29.52 in /  999.5 hPa WSW 21.9 mph /  35.2 km/h 21.9 mph /  35.2 km/h 91 % 0.17 in /  4.32 mm 0.0 W/m2 RA
18:07 46.0 °F /  7.8 °C 43.5 °F /  6.4 °C 29.52 in /  999.5 hPa WNW 8.1 mph /  13 km/h 8.1 mph /  13 km/h 91 % 0.21 in /  5.33 mm 0.0 W/m2 RA
18:12 46.0 °F /  7.8 °C 43.5 °F /  6.4 °C 29.52 in /  999.5 hPa West 8.1 mph /  13 km/h 8.1 mph /  13 km/h 91 % 0.28 in /  7.11 mm 0.0 W/m2 RA
18:14 45.0 °F /  7.2 °C 42.5 °F /  5.8 °C 29.52 in /  999.5 hPa NW 9.2 mph /  14.8 km/h 9.2 mph /  14.8 km/h 91 % 0.30 in /  7.62 mm 0.0 W/m2 RA
18:19 45.0 °F /  7.2 °C 42.5 °F /  5.8 °C 29.52 in /  999.5 hPa WNW 9.2 mph /  14.8 km/h 9.2 mph /  14.8 km/h 91 % 0.33 in /  8.38 mm 0.0 W/m2 RA
18:24 45.0 °F /  7.2 °C 42.5 °F /  5.8 °C 29.52 in /  999.5 hPa NW 10.4 mph /  16.7 km/h 10.4 mph /  16.7 km/h 91 % 0.35 in /  8.89 mm 0.0 W/m2 RA
18:29 45.0 °F /  7.2 °C 42.5 °F /  5.8 °C 29.52 in /  999.5 hPa West 11.5 mph /  18.5 km/h 11.5 mph /  18.5 km/h 91 % 0.34 in /  8.64 mm 0.0 W/m2 RA
18:34 45.0 °F /  7.2 °C 42.5 °F /  5.8 °C 29.52 in /  999.5 hPa NW 10.4 mph /  16.7 km/h 10.4 mph /  16.7 km/h 91 % 0.34 in /  8.64 mm 0.0 W/m2 RA
18:36 45.0 °F /  7.2 °C 42.5 °F /  5.8 °C 29.51 in /  999.2 hPa NNW 11.5 mph /  18.5 km/h 11.5 mph /  18.5 km/h 91 % 0.33 in /  8.38 mm 0.0 W/m2 RA
18:41 45.0 °F /  7.2 °C 42.5 °F /  5.8 °C 29.51 in /  999.2 hPa NW 11.5 mph /  18.5 km/h 11.5 mph /  18.5 km/h 91 % 0.30 in /  7.62 mm 0.0 W/m2 RA
18:43 45.0 °F /  7.2 °C 42.5 °F /  5.8 °C 29.51 in /  999.2 hPa NW 5.8 mph /  9.3 km/h 5.8 mph /  9.3 km/h 91 % 0.30 in /  7.62 mm 0.0 W/m2 RA
18:44 45.0 °F /  7.2 °C 42.5 °F /  5.8 °C 29.51 in /  999.2 hPa WNW 8.0 mph /  12.9 km/h 8.0 mph /  12.9 km/h 91 % 0.29 in /  7.37 mm 0.0 W/m2 RA
18:49 45.0 °F /  7.2 °C 42.5 °F /  5.8 °C 29.52 in /  999.5 hPa WNW 11.5 mph /  18.5 km/h 11.5 mph /  18.5 km/h 91 % 0.31 in /  7.87 mm 0.0 W/m2 RA
18:54 44.0 °F /  6.7 °C 41.5 °F /  5.3 °C 29.51 in /  999.2 hPa NNW 16.1 mph /  25.9 km/h 16.1 mph /  25.9 km/h 91 % 0.31 in /  7.87 mm 0.0 W/m2 RA
18:55 44.0 °F /  6.7 °C 41.5 °F /  5.3 °C 29.51 in /  999.2 hPa NNW 12.7 mph /  20.4 km/h 12.7 mph /  20.4 km/h 91 % 0.31 in /  7.87 mm 0.0 W/m2 RA
19:00 44.0 °F /  6.7 °C 41.5 °F /  5.3 °C 29.50 in /  998.9 hPa NNW 13.8 mph /  22.2 km/h 13.8 mph /  22.2 km/h 91 % 0.31 in /  7.87 mm 0.0 W/m2 RA
19:05 44.0 °F /  6.7 °C 41.5 °F /  5.3 °C 29.51 in /  999.2 hPa West 15.0 mph /  24.1 km/h 15.0 mph /  24.1 km/h 91 % 0.29 in /  7.37 mm 0.0 W/m2 RA
19:10 44.0 °F /  6.7 °C 41.5 °F /  5.3 °C 29.52 in /  999.5 hPa NW 11.5 mph /  18.5 km/h 11.5 mph /  18.5 km/h 91 % 0.30 in /  7.62 mm 0.0 W/m2 RA
19:13 43.0 °F /  6.1 °C 40.8 °F /  4.9 °C 29.52 in /  999.5 hPa NNW 15.0 mph /  24.1 km/h 15.0 mph /  24.1 km/h 92 % 0.28 in /  7.11 mm 0.0 W/m2 RA
19:15 43.0 °F /  6.1 °C 40.8 °F /  4.9 °C 29.52 in /  999.5 hPa WNW 13.8 mph /  22.2 km/h 13.8 mph /  22.2 km/h 92 % 0.28 in /  7.11 mm 0.0 W/m2 RA
19:20 43.0 °F /  6.1 °C 40.6 °F /  4.8 °C 29.52 in /  999.5 hPa NNW 10.0 mph /  16.1 km/h 10.0 mph /  16.1 km/h 91 % 0.34 in /  8.64 mm 0.0 W/m2 RA
19:26 43.0 °F /  6.1 °C 40.8 °F /  4.9 °C 29.52 in /  999.5 hPa WNW 12.7 mph /  20.4 km/h 12.7 mph /  20.4 km/h 92 % 0.34 in /  8.64 mm 0.0 W/m2 RA
19:31 43.0 °F /  6.1 °C 40.8 °F /  4.9 °C 29.53 in /  999.9 hPa WNW 12.7 mph /  20.4 km/h 12.7 mph /  20.4 km/h 92 % 0.42 in /  10.67 mm 0.0 W/m2 RA
19:34 43.0 °F /  6.1 °C 40.6 °F /  4.8 °C 29.53 in /  999.9 hPa West 13.8 mph /  22.2 km/h 13.8 mph /  22.2 km/h 91 % 0.45 in /  11.43 mm 0.0 W/m2 RA
19:39 42.0 °F /  5.6 °C 39.8 °F /  4.3 °C 29.52 in /  999.5 hPa WNW 13.8 mph /  22.2 km/h 13.8 mph /  22.2 km/h 92 % 0.47 in /  11.94 mm 0.0 W/m2 RA
19:44 42.0 °F /  5.6 °C 39.8 °F /  4.3 °C 29.51 in /  999.2 hPa WNW 11.5 mph /  18.5 km/h 11.5 mph /  18.5 km/h 92 % 0.46 in /  11.68 mm 0.0 W/m2 RA
19:49 42.0 °F /  5.6 °C 39.8 °F /  4.3 °C 29.51 in /  999.2 hPa WNW 13.8 mph /  22.2 km/h 13.8 mph /  22.2 km/h 92 % 0.46 in /  11.68 mm 0.0 W/m2 RA
19:51 42.0 °F /  5.6 °C 39.8 °F /  4.3 °C 29.51 in /  999.2 hPa NW 17.3 mph /  27.8 km/h 17.3 mph /  27.8 km/h 92 % 0.45 in /  11.43 mm 0.0 W/m2 RA
19:56 42.0 °F /  5.6 °C 39.8 °F /  4.3 °C 29.51 in /  999.2 hPa NW 11.5 mph /  18.5 km/h 11.5 mph /  18.5 km/h 92 % 0.45 in /  11.43 mm 0.0 W/m2 RA
20:01 42.0 °F /  5.6 °C 39.8 °F /  4.3 °C 29.51 in /  999.2 hPa NNW 10.4 mph /  16.7 km/h 10.4 mph /  16.7 km/h 92 % 0.46 in /  11.68 mm 0.0 W/m2 RA
20:06 42.0 °F /  5.6 °C 39.8 °F /  4.3 °C 29.51 in /  999.2 hPa NNW 11.5 mph /  18.5 km/h 11.5 mph /  18.5 km/h 92 % 0.43 in /  10.92 mm 0.0 W/m2 RA
20:08 42.0 °F /  5.6 °C 39.8 °F /  4.3 °C 29.50 in /  998.9 hPa North 11.5 mph /  18.5 km/h 11.5 mph /  18.5 km/h 92 % 0.42 in /  10.67 mm 0.0 W/m2 RA
20:14 42.0 °F /  5.6 °C 39.8 °F /  4.3 °C 29.51 in /  999.2 hPa NNW 11.5 mph /  18.5 km/h 11.5 mph /  18.5 km/h 92 % 0.39 in /  9.91 mm 0.0 W/m2 RA
20:19 42.0 °F /  5.6 °C 39.8 °F /  4.3 °C 29.52 in /  999.5 hPa NW 10.4 mph /  16.7 km/h 10.4 mph /  16.7 km/h 92 % 0.31 in /  7.87 mm 0.0 W/m2
20:24 42.0 °F /  5.6 °C 39.8 °F /  4.3 °C 29.51 in /  999.2 hPa WNW 11.5 mph /  18.5 km/h 11.5 mph /  18.5 km/h 92 % 0.30 in /  7.62 mm 0.0 W/m2 RA
20:29 42.0 °F /  5.6 °C 39.8 °F /  4.3 °C 29.52 in /  999.5 hPa WNW 10.4 mph /  16.7 km/h 10.4 mph /  16.7 km/h 92 % 0.31 in /  7.87 mm 0.0 W/m2 RA
20:34 42.0 °F /  5.6 °C 39.8 °F /  4.3 °C 29.53 in /  999.9 hPa WSW 9.2 mph /  14.8 km/h 9.2 mph /  14.8 km/h 92 % 0.24 in /  6.1 mm 0.0 W/m2 RA
20:37 42.0 °F /  5.6 °C 39.8 °F /  4.3 °C 29.51 in /  999.2 hPa NW 8.0 mph /  12.9 km/h 8.0 mph /  12.9 km/h 92 % 0.23 in /  5.84 mm 0.0 W/m2 RA
20:42 42.0 °F /  5.6 °C 39.8 °F /  4.3 °C 29.51 in /  999.2 hPa NNW 8.1 mph /  13 km/h 8.1 mph /  13 km/h 92 % 0.22 in /  5.59 mm 0.0 W/m2 RA
20:46 42.0 °F /  5.6 °C 39.8 °F /  4.3 °C 29.51 in /  999.2 hPa Calm     92 % 0.21 in /  5.33 mm 0.0 W/m2 CLR
20:52 42.0 °F /  5.6 °C 39.8 °F /  4.3 °C 29.51 in /  999.2 hPa North 11.5 mph /  18.5 km/h 11.5 mph /  18.5 km/h 92 % 0.20 in /  5.08 mm 0.0 W/m2 CLR
20:56 42.0 °F /  5.6 °C 39.8 °F /  4.3 °C 29.51 in /  999.2 hPa WNW 6.9 mph /  11.1 km/h 6.9 mph /  11.1 km/h 92 % 0.17 in /  4.32 mm 0.0 W/m2 CLR
21:01 42.0 °F /  5.6 °C 39.8 °F /  4.3 °C 29.53 in /  999.9 hPa West 11.5 mph /  18.5 km/h 11.5 mph /  18.5 km/h 92 % 0.17 in /  4.32 mm 0.0 W/m2 CLR
21:03 42.0 °F /  5.6 °C 39.8 °F /  4.3 °C 29.53 in /  999.9 hPa West 12.7 mph /  20.4 km/h 12.7 mph /  20.4 km/h 92 % 0.16 in /  4.06 mm 0.0 W/m2 CLR
21:08 42.0 °F /  5.6 °C 39.8 °F /  4.3 °C 29.53 in /  999.9 hPa WNW 16.1 mph /  25.9 km/h 16.1 mph /  25.9 km/h 92 % 0.14 in /  3.56 mm 0.0 W/m2 RA
21:09 42.0 °F /  5.6 °C 39.8 °F /  4.3 °C 29.52 in /  999.5 hPa NW 11.5 mph /  18.5 km/h 11.5 mph /  18.5 km/h 92 % 0.14 in /  3.56 mm 0.0 W/m2 RA
21:13 42.0 °F /  5.6 °C 39.8 °F /  4.3 °C 29.52 in /  999.5 hPa NNW 12.0 mph /  19.3 km/h 12.0 mph /  19.3 km/h 92 % 0.15 in /  3.81 mm 0.0 W/m2 RA
21:18 42.0 °F /  5.6 °C 39.8 °F /  4.3 °C 29.52 in /  999.5 hPa NNW 11.5 mph /  18.5 km/h 11.5 mph /  18.5 km/h 92 % 0.14 in /  3.56 mm 0.0 W/m2
21:20 42.0 °F /  5.6 °C 39.8 °F /  4.3 °C 29.51 in /  999.2 hPa North 12.0 mph /  19.3 km/h 12.0 mph /  19.3 km/h 92 % 0.14 in /  3.56 mm 0.0 W/m2 CLR
21:24 42.0 °F /  5.6 °C 39.8 °F /  4.3 °C 29.51 in /  999.2 hPa NNE 9.2 mph /  14.8 km/h 9.2 mph /  14.8 km/h 92 % 0.13 in /  3.3 mm 0.0 W/m2 CLR
21:29 42.0 °F /  5.6 °C 39.8 °F /  4.3 °C 29.50 in /  998.9 hPa NW 11.5 mph /  18.5 km/h 11.5 mph /  18.5 km/h 92 % 0.07 in /  1.78 mm 0.0 W/m2 CLR
21:31 42.0 °F /  5.6 °C 39.8 °F /  4.3 °C 29.50 in /  998.9 hPa NW 10.4 mph /  16.7 km/h 10.4 mph /  16.7 km/h 92 % 0.06 in /  1.52 mm 0.0 W/m2 CLR
21:36 42.0 °F /  5.6 °C 39.8 °F /  4.3 °C 29.52 in /  999.5 hPa NNE 4.6 mph /  7.4 km/h 4.6 mph /  7.4 km/h 92 % 0.04 in /  1.02 mm 0.0 W/m2 CLR
21:38 42.0 °F /  5.6 °C 39.8 °F /  4.3 °C 29.52 in /  999.5 hPa North 2.3 mph /  3.7 km/h   92 % 0.04 in /  1.02 mm 0.0 W/m2 CLR
21:43 42.0 °F /  5.6 °C 39.8 °F /  4.3 °C 29.53 in /  999.9 hPa Calm     92 % 0.03 in /  0.76 mm 0.0 W/m2 CLR
21:46 42.0 °F /  5.6 °C 39.8 °F /  4.3 °C 29.54 in /  1000.2 hPa Calm     92 % 0.03 in /  0.76 mm 0.0 W/m2 CLR
21:50 42.0 °F /  5.6 °C 39.8 °F /  4.3 °C 29.54 in /  1000.2 hPa Calm     92 % 0.03 in /  0.76 mm 0.0 W/m2 CLR
21:54 42.0 °F /  5.6 °C 39.8 °F /  4.3 °C 29.56 in /  1000.9 hPa West 18.4 mph /  29.6 km/h 18.4 mph /  29.6 km/h 92 % 0.04 in /  1.02 mm 0.0 W/m2 RA
21:59 41.0 °F /  5 °C 38.9 °F /  3.8 °C 29.56 in /  1000.9 hPa West 4.6 mph /  7.4 km/h 4.6 mph /  7.4 km/h 92 % 0.06 in /  1.52 mm 0.0 W/m2 RA
22:05 41.0 °F /  5 °C 38.9 °F /  3.8 °C 29.56 in /  1000.9 hPa West 11.0 mph /  17.7 km/h 11.0 mph /  17.7 km/h 92 % 0.09 in /  2.29 mm 0.0 W/m2 RA
22:07 41.0 °F /  5 °C 38.9 °F /  3.8 °C 29.56 in /  1000.9 hPa West 11.5 mph /  18.5 km/h 11.5 mph /  18.5 km/h 92 % 0.09 in /  2.29 mm 0.0 W/m2 RA
22:12 41.0 °F /  5 °C 38.9 °F /  3.8 °C 29.57 in /  1001.2 hPa West 16.1 mph /  25.9 km/h 16.1 mph /  25.9 km/h 92 % 0.07 in /  1.78 mm 0.0 W/m2
22:15 41.0 °F /  5 °C 38.9 °F /  3.8 °C 29.56 in /  1000.9 hPa WNW 6.9 mph /  11.1 km/h   92 % 0.08 in /  2.03 mm 0.0 W/m2 RA
22:20 41.0 °F /  5 °C 38.9 °F /  3.8 °C 29.56 in /  1000.9 hPa Calm     92 % 0.09 in /  2.29 mm 0.0 W/m2 RA
22:23 41.0 °F /  5 °C 38.9 °F /  3.8 °C 29.55 in /  1000.6 hPa NNW 8.1 mph /  13 km/h 8.1 mph /  13 km/h 92 % 0.09 in /  2.29 mm 0.0 W/m2 RA
22:28 41.0 °F /  5 °C 38.9 °F /  3.8 °C 29.56 in /  1000.9 hPa Calm     92 % 0.10 in /  2.54 mm 0.0 W/m2 RA
22:33 41.0 °F /  5 °C 38.9 °F /  3.8 °C 29.55 in /  1000.6 hPa Calm     92 % 0.10 in /  2.54 mm 0.0 W/m2 CLR
22:34 41.0 °F /  5 °C 38.9 °F /  3.8 °C 29.56 in /  1000.9 hPa Calm     92 % 0.10 in /  2.54 mm 0.0 W/m2 CLR
22:39 41.0 °F /  5 °C 38.9 °F /  3.8 °C 29.55 in /  1000.6 hPa Calm     92 % 0.10 in /  2.54 mm 0.0 W/m2 CLR
22:43 41.0 °F /  5 °C 38.9 °F /  3.8 °C 29.55 in /  1000.6 hPa Calm     92 % 0.10 in /  2.54 mm 0.0 W/m2 CLR
22:48 41.0 °F /  5 °C 38.9 °F /  3.8 °C 29.56 in /  1000.9 hPa Calm     92 % 0.10 in /  2.54 mm 0.0 W/m2 CLR
22:53 41.0 °F /  5 °C 38.9 °F /  3.8 °C 29.55 in /  1000.6 hPa Calm     92 % 0.09 in /  2.29 mm 0.0 W/m2 CLR
22:58 41.0 °F /  5 °C 38.9 °F /  3.8 °C 29.55 in /  1000.6 hPa Calm     92 % 0.08 in /  2.03 mm 0.0 W/m2 CLR
23:00 41.0 °F /  5 °C 38.9 °F /  3.8 °C 29.55 in /  1000.6 hPa Calm     92 % 0.07 in /  1.78 mm 0.0 W/m2 CLR
23:05 41.0 °F /  5 °C 38.9 °F /  3.8 °C 29.56 in /  1000.9 hPa Calm     92 % 0.04 in /  1.02 mm 0.0 W/m2 CLR
23:10 41.0 °F /  5 °C 38.9 °F /  3.8 °C 29.56 in /  1000.9 hPa Calm     92 % 0.03 in /  0.76 mm 0.0 W/m2 CLR
23:11 41.0 °F /  5 °C 38.9 °F /  3.8 °C 29.56 in /  1000.9 hPa Calm     92 % 0.04 in /  1.02 mm 0.0 W/m2 RA
23:16 41.0 °F /  5 °C 38.9 °F /  3.8 °C 29.55 in /  1000.6 hPa Calm     92 % 0.03 in /  0.76 mm 0.0 W/m2
23:22 41.0 °F /  5 °C 38.9 °F /  3.8 °C 29.55 in /  1000.6 hPa Calm     92 % 0.02 in /  0.51 mm 0.0 W/m2 CLR
23:23 41.0 °F /  5 °C 38.9 °F /  3.8 °C 29.55 in /  1000.6 hPa Calm     92 % 0.02 in /  0.51 mm 0.0 W/m2 CLR
23:33 41.0 °F /  5 °C 38.9 °F /  3.8 °C 29.56 in /  1000.9 hPa Calm     92 % 0.01 in /  0.25 mm 0.0 W/m2 CLR
23:38 41.0 °F /  5 °C 38.9 °F /  3.8 °C 29.55 in /  1000.6 hPa Calm     92 % 0.01 in /  0.25 mm 0.0 W/m2 CLR
23:41 41.0 °F /  5 °C 39.1 °F /  3.9 °C 29.55 in /  1000.6 hPa Calm     93 % 0.01 in /  0.25 mm 0.0 W/m2 CLR
23:46 41.0 °F /  5 °C 38.9 °F /  3.8 °C 29.54 in /  1000.2 hPa Calm     92 % 0.01 in /  0.25 mm 0.0 W/m2 CLR
23:51 40.0 °F /  4.4 °C 38.1 °F /  3.4 °C 29.54 in /  1000.2 hPa Calm     93 % 0.01 in /  0.25 mm 0.0 W/m2 CLR
23:52 40.0 °F /  4.4 °C 38.1 °F /  3.4 °C 29.54 in /  1000.2 hPa Calm     93 % 0.01 in /  0.25 mm 0.0 W/m2 CLR
23:57 41.0 °F /  5 °C 38.9 °F /  3.8 °C 29.54 in /  1000.2 hPa Calm     92 % 0.01 in /  0.25 mm 0.0 W/m2 CLR
Lo Temps de Massalio
Compliments of Weather Underground - 1.25 mb